Back to Top

Language: 

My Weather Underground Personal Weather Station Historical Data with Graphs...

Delerius Weather Station Historical Data
Daily Summary for February 10, 2018 Units:  Metric    English   Both
« Previous Day
Next Day »
Daily Weekly Monthly Yearly Custom
  High: Low: Average:
Temperature: 9.2 °C -0.7 °C 4.8 °C
Dew Point: 7.8 °C -2.1 °C 3.3 °C
Humidity: 93 % 83 % 90 %
Wind Speed: 43.5 km/h 0 km/h 14 km/h
Wind Gust: 72.4 km/h - -
Wind:- - SSW
Pressure: 1015.5 hPa 988.7 hPa -
Precipitation: 1.52 mm    
Historical Graphs
 
 
Tabular Data for February 10, 2018
Time Temperature Dew Point Pressure Wind Wind Speed Wind Gust Humidity Rainfall Rate (Hourly) solar Conditions
00:03 0.5 °C -1.3 °C 1015.5 hPa Calm     88 % 0 mm 0 W/m2
00:08 0.3 °C -1.4 °C 1015.5 hPa Calm   1.6 km/h 88 % 0 mm 0 W/m2
00:13 0.2 °C -1.6 °C 1015.5 hPa Calm     88 % 0 mm 0 W/m2
00:18 0.1 °C -1.7 °C 1015.5 hPa West 3.2 km/h 8 km/h 88 % 0 mm 0 W/m2
00:23 0.1 °C -1.5 °C 1015.5 hPa Calm   1.6 km/h 89 % 0 mm 0 W/m2
00:28 0 °C -1.6 °C 1015.1 hPa Calm   1.6 km/h 89 % 0 mm 0 W/m2
00:33 0 °C -1.6 °C 1015.1 hPa Calm   1.6 km/h 89 % 0 mm 0 W/m2
00:39 0 °C -1.4 °C 1015.1 hPa WNW 3.2 km/h 8 km/h 90 % 0 mm 0 W/m2
00:44 0.1 °C -1.3 °C 1015.1 hPa West 3.2 km/h 9.7 km/h 90 % 0 mm 0 W/m2
00:49 0.3 °C -1 °C 1015.1 hPa West 4.8 km/h 11.3 km/h 91 % 0 mm 0 W/m2
00:54 0.6 °C -0.7 °C 1015.1 hPa WSW 6.4 km/h 11.3 km/h 91 % 0 mm 0 W/m2
00:59 0.8 °C -0.7 °C 1015.1 hPa West 1.6 km/h 4.8 km/h 90 % 0 mm 0 W/m2
01:04 0.8 °C -0.7 °C 1015.1 hPa WSW 1.6 km/h 8 km/h 90 % 0 mm 0 W/m2
01:09 0.8 °C -0.7 °C 1015.1 hPa Calm   4.8 km/h 90 % 0 mm 0 W/m2
01:14 0.8 °C -0.7 °C 1015.1 hPa Calm   1.6 km/h 90 % 0 mm 0 W/m2
01:19 0.7 °C -0.9 °C 1015.1 hPa Calm     89 % 0 mm 0 W/m2
01:24 0.5 °C -1.1 °C 1015.1 hPa Calm     89 % 0 mm 0 W/m2
01:29 0.3 °C -1.3 °C 1015.1 hPa Calm     89 % 0 mm 0 W/m2
01:34 0.2 °C -1.4 °C 1015.1 hPa Calm     89 % 0 mm 0 W/m2
01:39 0.1 °C -1.3 °C 1015.1 hPa Calm   1.6 km/h 90 % 0 mm 0 W/m2
01:44 0.1 °C -1.3 °C 1015.1 hPa NE 1.6 km/h 6.4 km/h 90 % 0 mm 0 W/m2
01:49 0.1 °C -1.3 °C 1015.1 hPa Calm   1.6 km/h 90 % 0 mm 0 W/m2
01:54 0.1 °C -1.3 °C 1015.1 hPa Calm     90 % 0 mm 0 W/m2
01:59 -0.1 °C -1.6 °C 1014.8 hPa Calm     90 % 0 mm 0 W/m2
02:04 -0.1 °C -1.6 °C 1014.8 hPa Calm   1.6 km/h 90 % 0 mm 0 W/m2
02:09 -0.2 °C -1.7 °C 1014.4 hPa Calm     90 % 0 mm 0 W/m2
02:14 -0.2 °C -1.5 °C 1014.8 hPa Calm     91 % 0 mm 0 W/m2
02:19 -0.2 °C -1.5 °C 1014.8 hPa Calm   3.2 km/h 91 % 0 mm 0 W/m2
02:24 -0.2 °C -1.5 °C 1014.8 hPa Calm   1.6 km/h 91 % 0 mm 0 W/m2
02:29 -0.2 °C -1.5 °C 1014.8 hPa Calm     91 % 0 mm 0 W/m2
02:34 -0.2 °C -1.5 °C 1014.4 hPa Calm     91 % 0 mm 0 W/m2
02:39 -0.2 °C -1.5 °C 1014.4 hPa Calm   1.6 km/h 91 % 0 mm 0 W/m2
02:44 -0.3 °C -1.6 °C 1014.4 hPa Calm     91 % 0 mm 0 W/m2
02:49 -0.5 °C -1.9 °C 1014.4 hPa Calm     90 % 0 mm 0 W/m2
02:54 -0.6 °C -2.1 °C 1014.1 hPa Calm   1.6 km/h 90 % 0 mm 0 W/m2
02:59 -0.7 °C -2 °C 1014.1 hPa Calm   3.2 km/h 91 % 0 mm 0 W/m2
03:04 -0.6 °C -1.9 °C 1013.8 hPa Calm   1.6 km/h 91 % 0 mm 0 W/m2
03:09 -0.6 °C -1.9 °C 1013.8 hPa Calm   1.6 km/h 91 % 0 mm 0 W/m2
03:14 -0.6 °C -1.9 °C 1013.8 hPa SSW 3.2 km/h 8 km/h 91 % 0 mm 0 W/m2
03:19 -0.4 °C -1.6 °C 1013.8 hPa Calm   1.6 km/h 92 % 0 mm 0 W/m2
03:24 -0.4 °C -1.7 °C 1013.4 hPa SW 1.6 km/h 6.4 km/h 91 % 0 mm 0 W/m2
03:29 -0.2 °C -1.3 °C 1013.4 hPa SSW 1.6 km/h 6.4 km/h 92 % 0 mm 0 W/m2
03:34 -0.1 °C -1.4 °C 1013.1 hPa Calm   3.2 km/h 91 % 0 mm 0 W/m2
03:39 -0.1 °C -1.4 °C 1013.1 hPa Calm   8 km/h 91 % 0 mm 0 W/m2
03:45 0 °C -1.4 °C 1013.1 hPa South 3.2 km/h 12.9 km/h 90 % 0 mm 0 W/m2
03:50 0.1 °C -1.2 °C 1013.1 hPa South 1.6 km/h 3.2 km/h 91 % 0 mm 0 W/m2
03:55 0.3 °C -1.2 °C 1013.1 hPa South 4.8 km/h 11.3 km/h 90 % 0 mm 0 W/m2
04:00 0.3 °C -1.2 °C 1012.8 hPa Calm   3.2 km/h 90 % 0 mm 0 W/m2
04:05 0.3 °C -1.3 °C 1013.1 hPa Calm     89 % 0 mm 0 W/m2
04:10 0.2 °C -1.4 °C 1013.1 hPa Calm     89 % 0 mm 0 W/m2
04:15 0.1 °C -1.7 °C 1013.1 hPa Calm     88 % 0 mm 0 W/m2
04:20 0.2 °C -1.4 °C 1013.1 hPa Calm   6.4 km/h 89 % 0 mm 0 W/m2
04:25 0.3 °C -1.3 °C 1012.8 hPa SSE 3.2 km/h 6.4 km/h 89 % 0 mm 0 W/m2
04:30 0.3 °C -1.3 °C 1012.8 hPa SSE 8 km/h 19.3 km/h 89 % 0 mm 0 W/m2
04:35 0.5 °C -1.1 °C 1012.8 hPa SSE 11.3 km/h 16.1 km/h 89 % 0 mm 0 W/m2
04:40 0.7 °C -1.1 °C 1012.8 hPa SSE 9.7 km/h 14.5 km/h 88 % 0 mm 0 W/m2
04:45 0.8 °C -0.9 °C 1012.4 hPa SSE 6.4 km/h 9.7 km/h 88 % 0 mm 0 W/m2
04:50 0.8 °C -1.1 °C 1012.4 hPa South 8 km/h 11.3 km/h 87 % 0 mm 0 W/m2
04:55 0.9 °C -1 °C 1012.4 hPa SSW 6.4 km/h 11.3 km/h 87 % 0 mm 0 W/m2
05:00 0.9 °C -1 °C 1012.4 hPa SSW 6.4 km/h 9.7 km/h 87 % 0 mm 0 W/m2
05:05 0.9 °C -1 °C 1012.4 hPa SSW 6.4 km/h 11.3 km/h 87 % 0 mm 0 W/m2
05:10 0.9 °C -1 °C 1012.1 hPa South 4.8 km/h 9.7 km/h 87 % 0 mm 0 W/m2
05:15 1.1 °C -0.8 °C 1012.1 hPa SW 8 km/h 16.1 km/h 87 % 0 mm 0 W/m2
05:20 1.2 °C -0.7 °C 1012.1 hPa SW 8 km/h 12.9 km/h 87 % 0 mm 0 W/m2
05:25 1.4 °C -0.6 °C 1011.4 hPa SW 11.3 km/h 19.3 km/h 87 % 0 mm 0 W/m2
05:30 1.6 °C -0.3 °C 1011.4 hPa SW 11.3 km/h 22.5 km/h 87 % 0 mm 0 W/m2
05:35 1.8 °C -0.1 °C 1011.4 hPa SW 9.7 km/h 12.9 km/h 87 % 0 mm 0 W/m2
05:40 1.8 °C -0.3 °C 1011.4 hPa SW 12.9 km/h 22.5 km/h 86 % 0 mm 0 W/m2
05:45 1.9 °C -0.2 °C 1011.4 hPa SW 11.3 km/h 17.7 km/h 86 % 0 mm 0 W/m2
05:50 1.9 °C -0.2 °C 1011.1 hPa SW 12.9 km/h 20.9 km/h 86 % 0 mm 0 W/m2
05:55 2 °C -0.1 °C 1011.1 hPa SW 12.9 km/h 20.9 km/h 86 % 0 mm 0 W/m2
06:00 1.9 °C -0.3 °C 1011.1 hPa SW 9.7 km/h 20.9 km/h 85 % 0 mm 0 W/m2
06:05 1.9 °C -0.2 °C 1011.1 hPa SW 11.3 km/h 16.1 km/h 86 % 0 mm 0 W/m2
06:11 1.9 °C -0.3 °C 1011.1 hPa SSW 8 km/h 16.1 km/h 85 % 0 mm 0 W/m2
06:16 1.9 °C -0.2 °C 1010.7 hPa SSW 1.6 km/h 9.7 km/h 86 % 0 mm 0 W/m2
06:21 1.9 °C -0.3 °C 1010.7 hPa SSE 8 km/h 14.5 km/h 85 % 0 mm 0 W/m2
06:26 1.8 °C -0.4 °C 1010.7 hPa SSE 9.7 km/h 14.5 km/h 85 % 0 mm 0 W/m2
06:31 1.7 °C -0.4 °C 1010.7 hPa SSE 11.3 km/h 17.7 km/h 86 % 0 mm 0 W/m2
06:36 1.6 °C -0.5 °C 1010.4 hPa South 8 km/h 17.7 km/h 86 % 0 mm 0 W/m2
06:41 1.6 °C -0.5 °C 1010.4 hPa South 11.3 km/h 17.7 km/h 86 % 0 mm 0 W/m2
06:46 1.6 °C -0.3 °C 1010 hPa South 11.3 km/h 22.5 km/h 87 % 0 mm 0 W/m2
06:51 1.6 °C -0.3 °C 1010 hPa South 11.3 km/h 20.9 km/h 87 % 0 mm 0 W/m2
06:56 1.6 °C -0.3 °C 1010 hPa South 12.9 km/h 24.1 km/h 87 % 0 mm 0 W/m2
07:01 1.6 °C -0.3 °C 1010 hPa South 8 km/h 14.5 km/h 87 % 0 mm 0 W/m2
07:06 1.6 °C -0.3 °C 1009.7 hPa South 9.7 km/h 16.1 km/h 87 % 0 mm 0 W/m2
07:11 1.6 °C -0.3 °C 1009.7 hPa SSW 9.7 km/h 16.1 km/h 87 % 0 mm 0 W/m2
07:16 1.7 °C -0.2 °C 1009.7 hPa SSW 11.3 km/h 20.9 km/h 87 % 0 mm 0 W/m2
07:21 1.9 °C 0.1 °C 1009.7 hPa SSW 16.1 km/h 24.1 km/h 88 % 0 mm 0 W/m2
07:26 2.2 °C 0.4 °C 1009.7 hPa SSW 14.5 km/h 22.5 km/h 88 % 0 mm 0 W/m2
07:31 2.4 °C 0.4 °C 1009.4 hPa South 9.7 km/h 12.9 km/h 87 % 0 mm 0 W/m2
07:36 2.6 °C 0.5 °C 1009 hPa South 9.7 km/h 16.1 km/h 86 % 0 mm 0 W/m2
07:41 2.5 °C 0.4 °C 1009 hPa SSW 11.3 km/h 19.3 km/h 86 % 0 mm 0 W/m2
07:46 2.7 °C 0.8 °C 1009 hPa SSW 14.5 km/h 30.6 km/h 87 % 0 mm 0 W/m2
07:51 2.8 °C 0.8 °C 1008.7 hPa SSW 19.3 km/h 32.2 km/h 87 % 0 mm 5 W/m2
07:56 2.9 °C 0.8 °C 1008.7 hPa SSW 19.3 km/h 29 km/h 86 % 0 mm 7 W/m2
08:01 3.1 °C 1.2 °C 1008.7 hPa SW 22.5 km/h 45.1 km/h 87 % 0 mm 9 W/m2
08:06 3.2 °C 1.2 °C 1008.7 hPa SW 17.7 km/h 30.6 km/h 87 % 0 mm 11 W/m2
08:11 3.3 °C 1.3 °C 1008.7 hPa SW 20.9 km/h 32.2 km/h 87 % 0 mm 16 W/m2
08:16 3.2 °C 1.2 °C 1008.7 hPa SW 16.1 km/h 29 km/h 87 % 0 mm 16 W/m2
08:21 3.1 °C 1.2 °C 1008.7 hPa SW 17.7 km/h 29 km/h 87 % 0 mm 12 W/m2
08:26 2.9 °C 0.9 °C 1008.4 hPa SSW 17.7 km/h 25.7 km/h 87 % 0 mm 12 W/m2
08:31 2.8 °C 1 °C 1008.4 hPa SW 16.1 km/h 24.1 km/h 88 % 0 mm 19 W/m2
08:36 2.8 °C 1 °C 1008 hPa SSW 16.1 km/h 29 km/h 88 % 0 mm 28 W/m2
08:41 2.8 °C 1.2 °C 1008 hPa SSW 16.1 km/h 32.2 km/h 89 % 0 mm 32 W/m2
08:47 2.8 °C 1.2 °C 1008 hPa SSW 17.7 km/h 35.4 km/h 89 % 0 mm 28 W/m2
08:52 2.8 °C 1.3 °C 1008 hPa SSW 16.1 km/h 32.2 km/h 90 % 0 mm 30 W/m2
08:57 2.8 °C 1.3 °C 1007.7 hPa SSW 22.5 km/h 37 km/h 90 % 0 mm 39 W/m2
09:02 2.8 °C 1.3 °C 1007.7 hPa SSW 17.7 km/h 37 km/h 90 % 0 mm 33 W/m2
09:07 2.8 °C 1.3 °C 1007.3 hPa SSW 19.3 km/h 37 km/h 90 % 0 mm 28 W/m2
09:12 2.8 °C 1.5 °C 1007.3 hPa SSW 20.9 km/h 37 km/h 91 % 0 mm 39 W/m2
09:17 2.8 °C 1.5 °C 1007 hPa SSW 22.5 km/h 40.2 km/h 91 % 0 mm 26 W/m2
09:22 2.8 °C 1.5 °C 1007 hPa SSW 22.5 km/h 33.8 km/h 91 % 0 mm 49 W/m2
09:27 2.9 °C 1.6 °C 1006.7 hPa SSW 29 km/h 41.8 km/h 91 % 0 mm 39 W/m2
09:32 2.9 °C 1.6 °C 1006.7 hPa SSW 29 km/h 41.8 km/h 91 % 0 mm 53 W/m2
09:37 3.1 °C 1.8 °C 1006.3 hPa SSW 20.9 km/h 30.6 km/h 91 % 0 mm 67 W/m2
09:42 3.1 °C 1.8 °C 1006.3 hPa SSW 25.7 km/h 35.4 km/h 91 % 0 mm 65 W/m2
09:47 3.2 °C 1.9 °C 1006.3 hPa SSW 22.5 km/h 41.8 km/h 91 % 0 mm 56 W/m2
09:52 3.2 °C 1.9 °C 1006.3 hPa SSW 24.1 km/h 41.8 km/h 91 % 0 mm 54 W/m2
09:57 3.3 °C 1.9 °C 1006 hPa SSW 22.5 km/h 45.1 km/h 91 % 0 mm 67 W/m2
10:02 3.3 °C 1.9 °C 1006 hPa SSW 19.3 km/h 37 km/h 91 % 0 mm 72 W/m2
10:07 3.4 °C 2.1 °C 1006 hPa SSW 22.5 km/h 43.5 km/h 91 % 0.25 mm 54 W/m2
10:12 3.4 °C 2.1 °C 1006 hPa SSW 25.7 km/h 46.7 km/h 91 % 0.25 mm 54 W/m2
10:17 3.4 °C 2.1 °C 1006 hPa SSW 19.3 km/h 37 km/h 91 % 0.25 mm 69 W/m2
10:22 3.5 °C 2.2 °C 1005.6 hPa SSW 22.5 km/h 37 km/h 91 % 0.25 mm 86 W/m2
10:27 3.6 °C 2.4 °C 1005.6 hPa SSW 24.1 km/h 43.5 km/h 92 % 0.25 mm 84 W/m2
10:33 3.6 °C 2.4 °C 1005.3 hPa SSW 24.1 km/h 41.8 km/h 92 % 0.25 mm 102 W/m2
10:38 3.7 °C 2.5 °C 1005.3 hPa SSW 20.9 km/h 35.4 km/h 92 % 0.25 mm 93 W/m2
10:43 3.8 °C 2.6 °C 1005.3 hPa SSW 20.9 km/h 38.6 km/h 92 % 0.25 mm 97 W/m2
10:48 3.9 °C 2.7 °C 1005.3 hPa SSW 24.1 km/h 45.1 km/h 92 % 0.25 mm 97 W/m2
10:53 3.9 °C 2.7 °C 1005 hPa SSW 22.5 km/h 40.2 km/h 92 % 0.25 mm 130 W/m2
10:58 4.1 °C 2.9 °C 1004.6 hPa SSW 25.7 km/h 41.8 km/h 92 % 0.25 mm 113 W/m2
11:03 4.2 °C 3 °C 1004.6 hPa SSW 24.1 km/h 40.2 km/h 92 % 0 mm 113 W/m2
11:08 4.2 °C 3 °C 1004.6 hPa SSW 19.3 km/h 33.8 km/h 92 % 0 mm 144 W/m2
11:13 4.3 °C 3.1 °C 1004.3 hPa SSW 17.7 km/h 32.2 km/h 92 % 0 mm 132 W/m2
11:18 4.4 °C 3.2 °C 1004.3 hPa SSW 19.3 km/h 30.6 km/h 92 % 0 mm 121 W/m2
11:23 4.6 °C 3.4 °C 1004.3 hPa SSW 17.7 km/h 33.8 km/h 92 % 0 mm 114 W/m2
11:28 4.7 °C 3.5 °C 1004.3 hPa SSW 22.5 km/h 41.8 km/h 92 % 0 mm 125 W/m2
11:33 4.7 °C 3.3 °C 1003.9 hPa SSW 17.7 km/h 29 km/h 91 % 0 mm 105 W/m2
11:38 4.8 °C 3.6 °C 1003.9 hPa SW 20.9 km/h 32.2 km/h 92 % 0 mm 137 W/m2
11:43 5 °C 3.8 °C 1003.9 hPa SSW 22.5 km/h 37 km/h 92 % 0 mm 139 W/m2
11:48 5.1 °C 3.8 °C 1003.9 hPa SSW 24.1 km/h 37 km/h 91 % 0 mm 137 W/m2
11:53 5.2 °C 3.8 °C 1003.6 hPa SSW 17.7 km/h 25.7 km/h 91 % 0 mm 132 W/m2
11:58 5.2 °C 4 °C 1003.6 hPa SSW 24.1 km/h 38.6 km/h 92 % 0 mm 142 W/m2
12:03 5.3 °C 3.9 °C 1003.3 hPa SW 25.7 km/h 45.1 km/h 91 % 0 mm 167 W/m2
12:08 5.5 °C 4.2 °C 1003.6 hPa SW 27.4 km/h 43.5 km/h 91 % 0 mm 139 W/m2
12:13 5.6 °C 4.2 °C 1003.6 hPa SW 24.1 km/h 40.2 km/h 91 % 0 mm 200 W/m2
12:18 5.8 °C 4.4 °C 1003.3 hPa SW 27.4 km/h 45.1 km/h 91 % 0 mm 292 W/m2
12:23 6.1 °C 4.7 °C 1003.3 hPa SW 29 km/h 38.6 km/h 91 % 0 mm 301 W/m2
12:28 6.2 °C 4.8 °C 1002.9 hPa SW 24.1 km/h 35.4 km/h 91 % 0 mm 232 W/m2
12:33 6.3 °C 4.8 °C 1002.9 hPa SW 30.6 km/h 49.9 km/h 90 % 0 mm 236 W/m2
12:38 6.3 °C 4.9 °C 1002.6 hPa SW 24.1 km/h 37 km/h 91 % 0 mm 258 W/m2
12:43 6.3 °C 4.9 °C 1002.3 hPa SW 25.7 km/h 40.2 km/h 91 % 0 mm 239 W/m2
12:48 6.3 °C 4.9 °C 1002.3 hPa SW 20.9 km/h 38.6 km/h 91 % 0 mm 230 W/m2
12:53 6.4 °C 4.9 °C 1002.3 hPa SW 22.5 km/h 37 km/h 90 % 0 mm 220 W/m2
12:58 6.6 °C 5.1 °C 1002.3 hPa WSW 24.1 km/h 40.2 km/h 90 % 0 mm 214 W/m2
13:03 6.7 °C 5.2 °C 1002.3 hPa SW 25.7 km/h 38.6 km/h 90 % 0 mm 232 W/m2
13:08 6.7 °C 5.2 °C 1002.3 hPa SW 24.1 km/h 45.1 km/h 90 % 0 mm 190 W/m2
13:13 6.8 °C 5.3 °C 1002.3 hPa SW 25.7 km/h 40.2 km/h 90 % 0 mm 244 W/m2
13:18 7 °C 5.3 °C 1002.3 hPa SW 22.5 km/h 40.2 km/h 89 % 0 mm 297 W/m2
13:23 7.2 °C 5.5 °C 1002.3 hPa SW 25.7 km/h 38.6 km/h 89 % 0 mm 380 W/m2
13:28 7.5 °C 5.8 °C 1002.3 hPa SW 20.9 km/h 32.2 km/h 89 % 0 mm 371 W/m2
13:34 7.7 °C 5.8 °C 1002.3 hPa SW 20.9 km/h 35.4 km/h 88 % 0 mm 309 W/m2
13:39 7.8 °C 5.9 °C 1002.3 hPa SW 17.7 km/h 25.7 km/h 88 % 0 mm 223 W/m2
13:44 7.9 °C 6.1 °C 1001.9 hPa SW 19.3 km/h 30.6 km/h 88 % 0 mm 265 W/m2
13:49 7.9 °C 5.9 °C 1001.9 hPa SW 19.3 km/h 25.7 km/h 87 % 0 mm 199 W/m2
13:54 7.9 °C 5.9 °C 1001.9 hPa SW 14.5 km/h 20.9 km/h 87 % 0 mm 160 W/m2
13:59 7.9 °C 5.9 °C 1001.6 hPa SW 12.9 km/h 20.9 km/h 87 % 0 mm 211 W/m2
14:04 7.9 °C 5.9 °C 1001.9 hPa SSW 17.7 km/h 25.7 km/h 87 % 0 mm 221 W/m2
14:09 7.9 °C 5.9 °C 1001.9 hPa SSW 19.3 km/h 37 km/h 87 % 0 mm 118 W/m2
14:14 7.9 °C 5.9 °C 1001.6 hPa SSW 12.9 km/h 22.5 km/h 87 % 0 mm 135 W/m2
14:19 7.8 °C 5.9 °C 1001.6 hPa SSW 16.1 km/h 24.1 km/h 88 % 0 mm 88 W/m2
14:24 7.8 °C 5.9 °C 1001.6 hPa SSW 16.1 km/h 30.6 km/h 88 % 0 mm 113 W/m2
14:29 7.7 °C 5.8 °C 1001.6 hPa SSW 16.1 km/h 24.1 km/h 88 % 0 mm 120 W/m2
14:34 7.8 °C 5.9 °C 1001.6 hPa SSW 12.9 km/h 20.9 km/h 88 % 0 mm 86 W/m2
14:39 7.8 °C 5.9 °C 1001.2 hPa South 12.9 km/h 22.5 km/h 88 % 0 mm 179 W/m2
14:44 8 °C 6.3 °C 1001.2 hPa South 14.5 km/h 25.7 km/h 89 % 0 mm 258 W/m2
14:49 8.2 °C 6.3 °C 1001.2 hPa South 16.1 km/h 25.7 km/h 88 % 0 mm 142 W/m2
14:54 8.2 °C 6.3 °C 1000.9 hPa SSW 16.1 km/h 24.1 km/h 88 % 0 mm 100 W/m2
14:59 8.2 °C 6.3 °C 1000.9 hPa SSW 12.9 km/h 29 km/h 88 % 0 mm 84 W/m2
15:04 8.1 °C 6.2 °C 1000.6 hPa SSW 12.9 km/h 22.5 km/h 88 % 0 mm 81 W/m2
15:09 8.1 °C 6.2 °C 1000.6 hPa South 11.3 km/h 17.7 km/h 88 % 0 mm 76 W/m2
15:14 8 °C 6.1 °C 1000.2 hPa SSW 16.1 km/h 22.5 km/h 88 % 0 mm 65 W/m2
15:19 7.9 °C 6.2 °C 999.9 hPa SSW 12.9 km/h 22.5 km/h 89 % 0 mm 62 W/m2
15:24 7.8 °C 6.3 °C 999.9 hPa South 19.3 km/h 38.6 km/h 90 % 0 mm 54 W/m2
15:29 7.8 °C 6.3 °C 999.9 hPa SSW 14.5 km/h 22.5 km/h 90 % 0 mm 42 W/m2
15:34 7.8 °C 6.3 °C 999.9 hPa SSW 14.5 km/h 24.1 km/h 90 % 0 mm 56 W/m2
15:39 7.8 °C 6.4 °C 999.9 hPa SSW 16.1 km/h 24.1 km/h 91 % 0 mm 40 W/m2
15:44 7.8 °C 6.4 °C 999.9 hPa SSW 19.3 km/h 33.8 km/h 91 % 0 mm 33 W/m2
15:49 7.8 °C 6.4 °C 999.9 hPa SSW 17.7 km/h 29 km/h 91 % 0 mm 44 W/m2
15:54 7.9 °C 6.5 °C 999.5 hPa SSW 16.1 km/h 22.5 km/h 91 % 0 mm 62 W/m2
15:59 8 °C 6.6 °C 999.5 hPa SSW 14.5 km/h 20.9 km/h 91 % 0 mm 54 W/m2
16:01 8 °C 6.6 °C 999.5 hPa SW 14.5 km/h 24.1 km/h 91 % 0 mm 62 W/m2
16:06 8.1 °C 6.7 °C 999.5 hPa SSW 17.7 km/h 29 km/h 91 % 0 mm 28 W/m2
16:11 8.1 °C 6.7 °C 999.9 hPa SW 11.3 km/h 20.9 km/h 91 % 0 mm 23 W/m2
16:16 8.1 °C 6.7 °C 999.5 hPa SW 14.5 km/h 20.9 km/h 91 % 0 mm 44 W/m2
16:21 8.1 °C 6.7 °C 999.5 hPa SW 12.9 km/h 19.3 km/h 91 % 0 mm 54 W/m2
16:26 8.1 °C 6.7 °C 999.5 hPa SSW 14.5 km/h 22.5 km/h 91 % 0 mm 39 W/m2
16:31 8.1 °C 6.7 °C 999.5 hPa SSW 12.9 km/h 19.3 km/h 91 % 0 mm 25 W/m2
16:36 8.1 °C 6.7 °C 999.2 hPa South 12.9 km/h 20.9 km/h 91 % 0 mm 18 W/m2
16:41 8.1 °C 6.9 °C 999.2 hPa SSW 12.9 km/h 19.3 km/h 92 % 0 mm 12 W/m2
16:47 8 °C 6.8 °C 999.2 hPa SSW 12.9 km/h 19.3 km/h 92 % 0 mm 7 W/m2
16:52 7.9 °C 6.7 °C 999.2 hPa SSW 14.5 km/h 20.9 km/h 92 % 0 mm 7 W/m2
16:57 7.9 °C 6.7 °C 998.9 hPa South 11.3 km/h 16.1 km/h 92 % 0 mm 5 W/m2
17:02 7.9 °C 6.7 °C 998.9 hPa SSW 9.7 km/h 17.7 km/h 92 % 0 mm 0 W/m2
17:07 7.9 °C 6.8 °C 998.9 hPa South 6.4 km/h 11.3 km/h 93 % 0 mm 0 W/m2
17:12 7.9 °C 6.8 °C 998.9 hPa South 4.8 km/h 8 km/h 93 % 0 mm 0 W/m2
17:17 7.9 °C 6.8 °C 998.5 hPa SSE 4.8 km/h 8 km/h 93 % 0 mm 0 W/m2
17:22 7.9 °C 6.8 °C 998.5 hPa SSE 3.2 km/h 9.7 km/h 93 % 0 mm 0 W/m2
17:27 7.9 °C 6.8 °C 998.2 hPa SE 3.2 km/h 8 km/h 93 % 0 mm 0 W/m2
17:32 7.8 °C 6.7 °C 997.9 hPa SE 8 km/h 12.9 km/h 93 % 0 mm 0 W/m2
17:37 7.8 °C 6.7 °C 997.9 hPa SE 11.3 km/h 17.7 km/h 93 % 0 mm 0 W/m2
17:42 7.8 °C 6.7 °C 997.9 hPa SSE 9.7 km/h 14.5 km/h 93 % 0 mm 0 W/m2
17:47 7.7 °C 6.7 °C 997.9 hPa SE 11.3 km/h 16.1 km/h 93 % 0 mm 0 W/m2
17:52 7.7 °C 6.7 °C 997.5 hPa SE 14.5 km/h 20.9 km/h 93 % 0 mm 0 W/m2
17:58 7.8 °C 6.7 °C 997.5 hPa South 9.7 km/h 16.1 km/h 93 % 0 mm 0 W/m2
18:03 7.8 °C 6.7 °C 997.5 hPa South 9.7 km/h 19.3 km/h 93 % 0 mm 0 W/m2
18:08 7.9 °C 6.8 °C 997.5 hPa South 11.3 km/h 22.5 km/h 93 % 0 mm 0 W/m2
18:13 7.9 °C 6.8 °C 997.2 hPa SE 8 km/h 14.5 km/h 93 % 0 mm 0 W/m2
18:18 8 °C 6.9 °C 997.2 hPa ESE 4.8 km/h 11.3 km/h 93 % 0 mm 0 W/m2
18:23 8.1 °C 7.1 °C 997.2 hPa East 3.2 km/h 6.4 km/h 93 % 0 mm 0 W/m2
18:28 8.1 °C 7.1 °C 996.8 hPa SE 9.7 km/h 22.5 km/h 93 % 0 mm 0 W/m2
18:33 8.1 °C 7.1 °C 996.5 hPa Calm   3.2 km/h 93 % 0 mm 0 W/m2
18:38 8.1 °C 6.9 °C 996.5 hPa SE 4.8 km/h 8 km/h 92 % 0 mm 0 W/m2
18:43 8.1 °C 7.1 °C 996.5 hPa South 6.4 km/h 12.9 km/h 93 % 0 mm 0 W/m2
18:48 8.2 °C 7.1 °C 996.2 hPa SSW 9.7 km/h 16.1 km/h 93 % 0 mm 0 W/m2
18:53 8.3 °C 7.1 °C 995.8 hPa South 12.9 km/h 20.9 km/h 92 % 0 mm 0 W/m2
18:58 8.3 °C 7.1 °C 995.5 hPa SSW 11.3 km/h 16.1 km/h 92 % 0 mm 0 W/m2
19:03 8.4 °C 7 °C 995.5 hPa SSW 12.9 km/h 22.5 km/h 91 % 0 mm 0 W/m2
19:08 8.3 °C 6.8 °C 995.5 hPa SW 12.9 km/h 25.7 km/h 90 % 0 mm 0 W/m2
19:13 8.4 °C 6.8 °C 995.5 hPa SSW 20.9 km/h 32.2 km/h 90 % 0 mm 0 W/m2
19:18 8.4 °C 6.7 °C 995.5 hPa SW 16.1 km/h 24.1 km/h 89 % 0 mm 0 W/m2
19:23 8.5 °C 6.6 °C 995.8 hPa SW 17.7 km/h 25.7 km/h 88 % 0 mm 0 W/m2
19:28 8.6 °C 6.7 °C 996.2 hPa SW 16.1 km/h 22.5 km/h 88 % 0 mm 0 W/m2
19:33 8.6 °C 6.7 °C 995.8 hPa SW 16.1 km/h 24.1 km/h 88 % 0 mm 0 W/m2
19:38 8.7 °C 6.8 °C 995.5 hPa SW 14.5 km/h 20.9 km/h 88 % 0 mm 0 W/m2
19:43 8.7 °C 6.8 °C 995.5 hPa SSW 16.1 km/h 24.1 km/h 88 % 0 mm 0 W/m2
19:48 8.7 °C 6.8 °C 995.1 hPa SSW 16.1 km/h 22.5 km/h 88 % 0 mm 0 W/m2
19:53 8.6 °C 6.7 °C 994.8 hPa SSW 17.7 km/h 32.2 km/h 88 % 0 mm 0 W/m2
19:58 8.6 °C 6.7 °C 994.5 hPa SSW 16.1 km/h 29 km/h 88 % 0 mm 0 W/m2
20:03 8.7 °C 6.8 °C 994.5 hPa SW 24.1 km/h 33.8 km/h 88 % 0 mm 0 W/m2
20:08 8.8 °C 6.9 °C 994.1 hPa SW 20.9 km/h 35.4 km/h 88 % 0.25 mm 0 W/m2
20:13 8.7 °C 6.8 °C 994.1 hPa SW 20.9 km/h 30.6 km/h 88 % 0.25 mm 0 W/m2
20:18 8.7 °C 6.8 °C 993.8 hPa SW 17.7 km/h 32.2 km/h 88 % 0.25 mm 0 W/m2
20:23 8.7 °C 6.8 °C 993.5 hPa SSW 16.1 km/h 22.5 km/h 88 % 0.25 mm 0 W/m2
20:28 8.7 °C 7 °C 993.5 hPa SSW 12.9 km/h 20.9 km/h 89 % 0.25 mm 0 W/m2
20:33 8.6 °C 6.9 °C 993.5 hPa SSW 12.9 km/h 22.5 km/h 89 % 0.25 mm 0 W/m2
20:38 8.6 °C 7.1 °C 993.1 hPa South 11.3 km/h 17.7 km/h 90 % 0.25 mm 0 W/m2
20:43 8.6 °C 7.1 °C 993.1 hPa South 11.3 km/h 16.1 km/h 90 % 0.25 mm 0 W/m2
20:48 8.6 °C 7.1 °C 992.8 hPa South 9.7 km/h 14.5 km/h 90 % 0.25 mm 0 W/m2
20:53 8.6 °C 7.1 °C 992.4 hPa SSE 9.7 km/h 12.9 km/h 90 % 0.25 mm 0 W/m2
20:58 8.6 °C 7.2 °C 992.1 hPa SSE 11.3 km/h 16.1 km/h 91 % 0.25 mm 0 W/m2
21:03 8.5 °C 7.1 °C 992.1 hPa SSE 9.7 km/h 12.9 km/h 91 % 0 mm 0 W/m2
21:08 8.5 °C 7.1 °C 991.8 hPa South 11.3 km/h 16.1 km/h 91 % 0 mm 0 W/m2
21:13 8.6 °C 7.2 °C 991.4 hPa SSW 14.5 km/h 22.5 km/h 91 % 0 mm 0 W/m2
21:19 8.6 °C 7.2 °C 991.4 hPa SSW 16.1 km/h 32.2 km/h 91 % 0 mm 0 W/m2
21:24 8.8 °C 7.4 °C 991.1 hPa SSW 19.3 km/h 33.8 km/h 91 % 0 mm 0 W/m2
21:29 8.9 °C 7.5 °C 991.1 hPa SSW 22.5 km/h 37 km/h 91 % 0 mm 0 W/m2
21:34 9 °C 7.4 °C 990.7 hPa SSW 22.5 km/h 37 km/h 90 % 0 mm 0 W/m2
21:39 9 °C 7.4 °C 990.7 hPa SSW 19.3 km/h 30.6 km/h 90 % 0 mm 0 W/m2
21:44 9 °C 7.6 °C 990.7 hPa SW 17.7 km/h 30.6 km/h 91 % 0 mm 0 W/m2
21:49 9 °C 7.6 °C 990.4 hPa SSW 19.3 km/h 29 km/h 91 % 0 mm 0 W/m2
21:54 9.1 °C 7.7 °C 990.4 hPa SW 17.7 km/h 29 km/h 91 % 0 mm 0 W/m2
21:59 9 °C 7.6 °C 990.4 hPa SW 17.7 km/h 24.1 km/h 91 % 0 mm 0 W/m2
22:04 9 °C 7.6 °C 990.1 hPa SW 19.3 km/h 38.6 km/h 91 % 0 mm 0 W/m2
22:09 9.1 °C 7.7 °C 989.7 hPa SW 27.4 km/h 41.8 km/h 91 % 0 mm 0 W/m2
22:14 9.2 °C 7.8 °C 989.7 hPa SW 19.3 km/h 33.8 km/h 91 % 0 mm 0 W/m2
22:19 9.2 °C 7.8 °C 989.7 hPa SSW 19.3 km/h 37 km/h 91 % 0 mm 0 W/m2
22:24 9.1 °C 7.7 °C 989.4 hPa SSW 19.3 km/h 30.6 km/h 91 % 0 mm 0 W/m2
22:29 9.1 °C 7.7 °C 989.4 hPa SSW 17.7 km/h 25.7 km/h 91 % 0 mm 0 W/m2
22:34 9 °C 7.8 °C 989.4 hPa SW 17.7 km/h 25.7 km/h 92 % 0 mm 0 W/m2
22:39 8.9 °C 7.7 °C 989.4 hPa SSW 19.3 km/h 32.2 km/h 92 % 0.25 mm 0 W/m2
22:44 8.9 °C 7.7 °C 989.4 hPa SW 17.7 km/h 24.1 km/h 92 % 0.51 mm 0 W/m2
22:49 8.9 °C 7.8 °C 989.4 hPa WSW 16.1 km/h 25.7 km/h 93 % 0.51 mm 0 W/m2
22:54 8.9 °C 7.8 °C 989.4 hPa West 14.5 km/h 24.1 km/h 93 % 0.51 mm 0 W/m2
22:59 8.8 °C 7.7 °C 989.1 hPa WSW 22.5 km/h 38.6 km/h 93 % 0.76 mm 0 W/m2
23:04 8.6 °C 7.1 °C 988.7 hPa WSW 30.6 km/h 54.7 km/h 90 % 0.76 mm 0 W/m2
23:09 8.6 °C 6.9 °C 988.7 hPa WSW 24.1 km/h 40.2 km/h 89 % 0.76 mm 0 W/m2
23:14 8.4 °C 6.7 °C 989.1 hPa WSW 30.6 km/h 49.9 km/h 89 % 1.02 mm 0 W/m2
23:19 8.1 °C 6.1 °C 989.4 hPa West 40.2 km/h 56.3 km/h 87 % 1.02 mm 0 W/m2
23:24 7.6 °C 5.2 °C 989.4 hPa WSW 41.8 km/h 61.2 km/h 85 % 1.02 mm 0 W/m2
23:29 7.2 °C 4.7 °C 989.4 hPa West 41.8 km/h 64.4 km/h 84 % 1.02 mm 0 W/m2
23:34 6.8 °C 4.3 °C 989.4 hPa West 41.8 km/h 69.2 km/h 84 % 1.02 mm 0 W/m2
23:39 6.6 °C 3.9 °C 989.4 hPa West 43.5 km/h 72.4 km/h 83 % 0.76 mm 0 W/m2
23:44 6.5 °C 3.8 °C 989.1 hPa WSW 40.2 km/h 59.5 km/h 83 % 0.51 mm 0 W/m2
23:49 6.3 °C 3.8 °C 989.1 hPa WSW 37 km/h 61.2 km/h 84 % 0.51 mm 0 W/m2
23:55 6.1 °C 3.9 °C 989.1 hPa West 35.4 km/h 46.7 km/h 86 % 0.51 mm 0 W/m2
Delerius-Weather
Compliments of Weather Underground - 2.25 mb

Data updates at regular intervals.